sensor_id;sensor_type;location;lat;lon;timestamp;P1;durP1;ratioP1;P2;durP2;ratioP2
23696;SDS011;48864;50.820;4.400;2022-09-06T00:01:12;5.03;;;4.25;;
23696;SDS011;48864;50.820;4.400;2022-09-06T00:03:40;5.50;;;4.25;;
23696;SDS011;48864;50.820;4.400;2022-09-06T00:06:07;4.63;;;4.22;;
23696;SDS011;48864;50.820;4.400;2022-09-06T00:08:34;6.03;;;4.53;;
23696;SDS011;48864;50.820;4.400;2022-09-06T00:10:59;4.53;;;4.03;;
23696;SDS011;48864;50.820;4.400;2022-09-06T00:13:25;6.55;;;4.03;;
23696;SDS011;48864;50.820;4.400;2022-09-06T00:15:51;4.88;;;3.92;;
23696;SDS011;48864;50.820;4.400;2022-09-06T00:18:16;5.25;;;4.32;;
23696;SDS011;48864;50.820;4.400;2022-09-06T00:20:42;5.40;;;4.18;;
23696;SDS011;48864;50.820;4.400;2022-09-06T00:23:08;5.72;;;4.03;;
23696;SDS011;48864;50.820;4.400;2022-09-06T00:25:33;6.35;;;3.95;;
23696;SDS011;48864;50.820;4.400;2022-09-06T00:28:00;4.20;;;3.80;;
23696;SDS011;48864;50.820;4.400;2022-09-06T00:30:28;4.75;;;3.83;;
23696;SDS011;48864;50.820;4.400;2022-09-06T00:32:55;3.83;;;3.53;;
23696;SDS011;48864;50.820;4.400;2022-09-06T00:35:21;4.80;;;4.10;;
23696;SDS011;48864;50.820;4.400;2022-09-06T00:37:54;5.22;;;3.85;;
23696;SDS011;48864;50.820;4.400;2022-09-06T00:40:21;4.78;;;4.03;;
23696;SDS011;48864;50.820;4.400;2022-09-06T00:42:47;5.00;;;3.80;;
23696;SDS011;48864;50.820;4.400;2022-09-06T00:45:13;5.03;;;3.97;;
23696;SDS011;48864;50.820;4.400;2022-09-06T00:47:39;4.10;;;3.70;;
23696;SDS011;48864;50.820;4.400;2022-09-06T00:50:07;4.40;;;3.60;;
23696;SDS011;48864;50.820;4.400;2022-09-06T00:52:36;4.55;;;3.67;;
23696;SDS011;48864;50.820;4.400;2022-09-06T00:55:03;5.72;;;3.85;;
23696;SDS011;48864;50.820;4.400;2022-09-06T00:57:29;5.75;;;3.92;;
23696;SDS011;48864;50.820;4.400;2022-09-06T00:59:56;4.30;;;3.80;;
23696;SDS011;48864;50.820;4.400;2022-09-06T01:02:22;4.57;;;3.50;;
23696;SDS011;48864;50.820;4.400;2022-09-06T01:04:48;5.18;;;3.88;;
23696;SDS011;48864;50.820;4.400;2022-09-06T01:07:26;5.35;;;3.97;;
23696;SDS011;48864;50.820;4.400;2022-09-06T01:10:17;4.57;;;3.80;;
23696;SDS011;48864;50.820;4.400;2022-09-06T01:18:44;4.22;;;3.83;;
23696;SDS011;48864;50.820;4.400;2022-09-06T01:30:39;5.07;;;3.55;;
23696;SDS011;48864;50.820;4.400;2022-09-06T01:33:26;3.97;;;3.58;;
23696;SDS011;48864;50.820;4.400;2022-09-06T01:36:03;6.88;;;3.80;;
23696;SDS011;48864;50.820;4.400;2022-09-06T01:38:33;5.05;;;3.83;;
23696;SDS011;48864;50.820;4.400;2022-09-06T01:40:59;3.80;;;3.47;;
23696;SDS011;48864;50.820;4.400;2022-09-06T01:43:26;4.72;;;3.60;;
23696;SDS011;48864;50.820;4.400;2022-09-06T01:51:28;6.05;;;3.60;;
23696;SDS011;48864;50.820;4.400;2022-09-06T01:54:08;5.10;;;4.00;;
23696;SDS011;48864;50.820;4.400;2022-09-06T02:05:45;4.05;;;3.67;;
23696;SDS011;48864;50.820;4.400;2022-09-06T02:08:29;4.25;;;3.85;;
23696;SDS011;48864;50.820;4.400;2022-09-06T02:11:02;5.28;;;3.40;;
23696;SDS011;48864;50.820;4.400;2022-09-06T02:13:31;4.70;;;3.63;;
23696;SDS011;48864;50.820;4.400;2022-09-06T02:16:03;4.75;;;3.80;;
23696;SDS011;48864;50.820;4.400;2022-09-06T02:18:45;5.90;;;4.13;;
23696;SDS011;48864;50.820;4.400;2022-09-06T02:21:20;7.28;;;3.97;;
23696;SDS011;48864;50.820;4.400;2022-09-06T02:23:51;4.03;;;3.60;;
23696;SDS011;48864;50.820;4.400;2022-09-06T02:26:23;4.75;;;3.97;;
23696;SDS011;48864;50.820;4.400;2022-09-06T02:28:51;5.20;;;3.65;;
23696;SDS011;48864;50.820;4.400;2022-09-06T02:31:19;5.18;;;4.25;;
23696;SDS011;48864;50.820;4.400;2022-09-06T02:33:49;6.25;;;3.90;;
23696;SDS011;48864;50.820;4.400;2022-09-06T02:36:16;4.60;;;4.10;;
23696;SDS011;48864;50.820;4.400;2022-09-06T02:38:42;4.35;;;3.95;;
23696;SDS011;48864;50.820;4.400;2022-09-06T02:41:09;5.28;;;4.13;;
23696;SDS011;48864;50.820;4.400;2022-09-06T02:43:36;6.70;;;4.45;;
23696;SDS011;48864;50.820;4.400;2022-09-06T02:46:02;6.35;;;4.38;;
23696;SDS011;48864;50.820;4.400;2022-09-06T02:48:28;5.82;;;4.55;;
23696;SDS011;48864;50.820;4.400;2022-09-06T02:50:53;8.35;;;4.85;;
23696;SDS011;48864;50.820;4.400;2022-09-06T02:53:19;5.53;;;4.90;;
23696;SDS011;48864;50.820;4.400;2022-09-06T02:55:45;9.07;;;5.00;;
23696;SDS011;48864;50.820;4.400;2022-09-06T02:58:12;9.40;;;5.30;;
23696;SDS011;48864;50.820;4.400;2022-09-06T03:00:39;7.13;;;5.55;;
23696;SDS011;48864;50.820;4.400;2022-09-06T03:03:05;5.82;;;5.18;;
23696;SDS011;48864;50.820;4.400;2022-09-06T03:05:30;7.60;;;5.70;;
23696;SDS011;48864;50.820;4.400;2022-09-06T03:07:56;7.65;;;5.82;;
23696;SDS011;48864;50.820;4.400;2022-09-06T03:10:22;8.98;;;6.13;;
23696;SDS011;48864;50.820;4.400;2022-09-06T03:12:49;7.95;;;5.75;;
23696;SDS011;48864;50.820;4.400;2022-09-06T03:15:15;8.48;;;5.97;;
23696;SDS011;48864;50.820;4.400;2022-09-06T03:17:41;7.97;;;6.80;;
23696;SDS011;48864;50.820;4.400;2022-09-06T03:20:07;7.63;;;6.72;;
23696;SDS011;48864;50.820;4.400;2022-09-06T03:22:34;7.07;;;6.35;;
23696;SDS011;48864;50.820;4.400;2022-09-06T03:25:01;8.90;;;7.07;;
23696;SDS011;48864;50.820;4.400;2022-09-06T03:27:27;8.80;;;6.88;;
23696;SDS011;48864;50.820;4.400;2022-09-06T03:29:53;7.88;;;6.70;;
23696;SDS011;48864;50.820;4.400;2022-09-06T03:32:19;10.35;;;7.22;;
23696;SDS011;48864;50.820;4.400;2022-09-06T03:34:44;8.20;;;7.25;;
23696;SDS011;48864;50.820;4.400;2022-09-06T03:37:10;12.00;;;7.40;;
23696;SDS011;48864;50.820;4.400;2022-09-06T03:39:35;12.65;;;7.60;;
23696;SDS011;48864;50.820;4.400;2022-09-06T03:42:01;10.30;;;7.55;;
23696;SDS011;48864;50.820;4.400;2022-09-06T03:44:26;10.32;;;7.80;;
23696;SDS011;48864;50.820;4.400;2022-09-06T03:46:52;8.75;;;7.47;;
23696;SDS011;48864;50.820;4.400;2022-09-06T03:49:17;9.18;;;7.07;;
23696;SDS011;48864;50.820;4.400;2022-09-06T03:51:43;8.95;;;8.05;;
23696;SDS011;48864;50.820;4.400;2022-09-06T03:54:09;12.27;;;8.18;;
23696;SDS011;48864;50.820;4.400;2022-09-06T03:56:34;10.60;;;7.60;;
23696;SDS011;48864;50.820;4.400;2022-09-06T03:59:00;9.23;;;7.82;;
23696;SDS011;48864;50.820;4.400;2022-09-06T04:01:25;12.93;;;8.02;;
23696;SDS011;48864;50.820;4.400;2022-09-06T04:03:51;11.30;;;7.38;;
23696;SDS011;48864;50.820;4.400;2022-09-06T04:06:17;11.80;;;7.63;;
23696;SDS011;48864;50.820;4.400;2022-09-06T04:08:43;9.43;;;7.40;;
23696;SDS011;48864;50.820;4.400;2022-09-06T04:11:09;9.35;;;7.57;;
23696;SDS011;48864;50.820;4.400;2022-09-06T04:13:34;23.60;;;16.05;;
23696;SDS011;48864;50.820;4.400;2022-09-06T04:16:01;12.45;;;8.85;;
23696;SDS011;48864;50.820;4.400;2022-09-06T04:18:28;10.35;;;7.50;;
23696;SDS011;48864;50.820;4.400;2022-09-06T04:20:54;10.73;;;7.65;;
23696;SDS011;48864;50.820;4.400;2022-09-06T04:23:20;10.93;;;7.15;;
23696;SDS011;48864;50.820;4.400;2022-09-06T04:25:48;8.63;;;7.05;;
23696;SDS011;48864;50.820;4.400;2022-09-06T04:28:14;9.57;;;6.93;;
23696;SDS011;48864;50.820;4.400;2022-09-06T04:30:42;12.30;;;7.97;;
23696;SDS011;48864;50.820;4.400;2022-09-06T04:33:18;17.83;;;16.42;;
23696;SDS011;48864;50.820;4.400;2022-09-06T04:35:48;17.13;;;15.52;;
23696;SDS011;48864;50.820;4.400;2022-09-06T04:38:14;17.23;;;15.88;;
23696;SDS011;48864;50.820;4.400;2022-09-06T04:40:39;16.60;;;15.20;;
23696;SDS011;48864;50.820;4.400;2022-09-06T04:43:05;16.08;;;14.63;;
23696;SDS011;48864;50.820;4.400;2022-09-06T04:45:30;17.35;;;15.95;;
23696;SDS011;48864;50.820;4.400;2022-09-06T04:47:56;15.82;;;14.48;;
23696;SDS011;48864;50.820;4.400;2022-09-06T04:50:22;17.05;;;15.52;;
23696;SDS011;48864;50.820;4.400;2022-09-06T04:52:47;21.42;;;19.33;;
23696;SDS011;48864;50.820;4.400;2022-09-06T04:55:13;17.20;;;15.50;;
23696;SDS011;48864;50.820;4.400;2022-09-06T04:57:38;16.50;;;15.07;;
23696;SDS011;48864;50.820;4.400;2022-09-06T05:00:04;16.35;;;14.95;;
23696;SDS011;48864;50.820;4.400;2022-09-06T05:02:30;15.65;;;14.48;;
23696;SDS011;48864;50.820;4.400;2022-09-06T05:04:56;15.55;;;14.23;;
23696;SDS011;48864;50.820;4.400;2022-09-06T05:07:21;16.60;;;15.00;;
23696;SDS011;48864;50.820;4.400;2022-09-06T05:09:47;15.93;;;14.35;;
23696;SDS011;48864;50.820;4.400;2022-09-06T05:12:13;15.27;;;14.18;;
23696;SDS011;48864;50.820;4.400;2022-09-06T05:14:38;16.42;;;15.10;;
23696;SDS011;48864;50.820;4.400;2022-09-06T05:17:04;16.08;;;14.68;;
23696;SDS011;48864;50.820;4.400;2022-09-06T05:19:30;16.35;;;15.05;;
23696;SDS011;48864;50.820;4.400;2022-09-06T05:21:55;15.57;;;14.35;;
23696;SDS011;48864;50.820;4.400;2022-09-06T05:24:21;15.65;;;14.30;;
23696;SDS011;48864;50.820;4.400;2022-09-06T05:26:46;16.90;;;15.05;;
23696;SDS011;48864;50.820;4.400;2022-09-06T05:29:12;42.50;;;29.20;;
23696;SDS011;48864;50.820;4.400;2022-09-06T05:31:38;11.73;;;9.68;;
23696;SDS011;48864;50.820;4.400;2022-09-06T05:34:03;8.52;;;7.82;;
23696;SDS011;48864;50.820;4.400;2022-09-06T05:36:29;11.13;;;8.15;;
23696;SDS011;48864;50.820;4.400;2022-09-06T05:38:57;8.07;;;7.38;;
23696;SDS011;48864;50.820;4.400;2022-09-06T05:41:23;8.25;;;7.53;;
23696;SDS011;48864;50.820;4.400;2022-09-06T05:43:49;7.80;;;7.20;;
23696;SDS011;48864;50.820;4.400;2022-09-06T05:46:15;7.55;;;6.60;;
23696;SDS011;48864;50.820;4.400;2022-09-06T05:48:42;6.57;;;5.95;;
23696;SDS011;48864;50.820;4.400;2022-09-06T05:51:10;6.93;;;6.15;;
23696;SDS011;48864;50.820;4.400;2022-09-06T05:53:40;9.48;;;6.20;;
23696;SDS011;48864;50.820;4.400;2022-09-06T05:56:07;10.80;;;7.00;;
23696;SDS011;48864;50.820;4.400;2022-09-06T05:58:33;6.97;;;6.40;;
23696;SDS011;48864;50.820;4.400;2022-09-06T06:01:19;8.65;;;6.10;;
23696;SDS011;48864;50.820;4.400;2022-09-06T06:03:51;8.13;;;6.72;;
23696;SDS011;48864;50.820;4.400;2022-09-06T06:06:21;9.73;;;5.82;;
23696;SDS011;48864;50.820;4.400;2022-09-06T06:08:48;6.65;;;6.03;;
23696;SDS011;48864;50.820;4.400;2022-09-06T06:11:14;6.82;;;6.20;;
23696;SDS011;48864;50.820;4.400;2022-09-06T06:13:41;10.25;;;7.90;;
23696;SDS011;48864;50.820;4.400;2022-09-06T06:16:12;6.90;;;6.25;;
23696;SDS011;48864;50.820;4.400;2022-09-06T06:18:39;9.25;;;5.82;;
23696;SDS011;48864;50.820;4.400;2022-09-06T06:21:18;6.65;;;6.10;;
23696;SDS011;48864;50.820;4.400;2022-09-06T06:23:54;6.35;;;5.75;;
23696;SDS011;48864;50.820;4.400;2022-09-06T06:26:23;7.45;;;5.75;;
23696;SDS011;48864;50.820;4.400;2022-09-06T06:28:52;6.75;;;6.10;;
23696;SDS011;48864;50.820;4.400;2022-09-06T06:31:18;6.30;;;5.60;;
23696;SDS011;48864;50.820;4.400;2022-09-06T06:33:46;6.32;;;5.82;;
23696;SDS011;48864;50.820;4.400;2022-09-06T06:38:38;6.75;;;6.15;;
23696;SDS011;48864;50.820;4.400;2022-09-06T06:41:10;6.60;;;6.00;;
23696;SDS011;48864;50.820;4.400;2022-09-06T06:43:37;6.63;;;6.03;;
23696;SDS011;48864;50.820;4.400;2022-09-06T06:46:03;7.75;;;5.65;;
23696;SDS011;48864;50.820;4.400;2022-09-06T06:48:29;6.30;;;5.78;;
23696;SDS011;48864;50.820;4.400;2022-09-06T06:50:55;6.13;;;5.47;;
23696;SDS011;48864;50.820;4.400;2022-09-06T06:53:21;5.88;;;5.30;;
23696;SDS011;48864;50.820;4.400;2022-09-06T06:55:46;6.35;;;5.80;;
23696;SDS011;48864;50.820;4.400;2022-09-06T06:58:21;7.00;;;6.00;;
23696;SDS011;48864;50.820;4.400;2022-09-06T07:00:46;5.90;;;5.45;;
23696;SDS011;48864;50.820;4.400;2022-09-06T07:05:44;8.50;;;3.17;;
23696;SDS011;48864;50.820;4.400;2022-09-06T07:08:15;8.73;;;3.40;;
23696;SDS011;48864;50.820;4.400;2022-09-06T07:13:33;7.78;;;3.28;;
23696;SDS011;48864;50.820;4.400;2022-09-06T07:18:51;5.28;;;3.20;;
23696;SDS011;48864;50.820;4.400;2022-09-06T07:21:31;3.55;;;2.75;;
23696;SDS011;48864;50.820;4.400;2022-09-06T07:23:59;8.13;;;3.08;;
23696;SDS011;48864;50.820;4.400;2022-09-06T07:26:28;6.15;;;2.50;;
23696;SDS011;48864;50.820;4.400;2022-09-06T07:28:55;4.40;;;2.50;;
23696;SDS011;48864;50.820;4.400;2022-09-06T07:31:23;3.38;;;2.50;;
23696;SDS011;48864;50.820;4.400;2022-09-06T07:33:55;3.20;;;2.70;;
23696;SDS011;48864;50.820;4.400;2022-09-06T07:36:20;5.43;;;2.70;;
23696;SDS011;48864;50.820;4.400;2022-09-06T07:38:50;5.78;;;2.65;;
23696;SDS011;48864;50.820;4.400;2022-09-06T07:41:16;4.43;;;2.70;;
23696;SDS011;48864;50.820;4.400;2022-09-06T07:43:42;4.97;;;2.60;;
23696;SDS011;48864;50.820;4.400;2022-09-06T07:46:15;4.55;;;2.83;;
23696;SDS011;48864;50.820;4.400;2022-09-06T07:48:42;5.43;;;2.33;;
23696;SDS011;48864;50.820;4.400;2022-09-06T07:51:11;4.40;;;2.45;;
23696;SDS011;48864;50.820;4.400;2022-09-06T07:53:42;11.82;;;4.30;;
23696;SDS011;48864;50.820;4.400;2022-09-06T07:56:10;4.15;;;2.78;;
23696;SDS011;48864;50.820;4.400;2022-09-06T07:58:41;5.80;;;2.50;;
23696;SDS011;48864;50.820;4.400;2022-09-06T08:03:44;3.33;;;2.60;;
23696;SDS011;48864;50.820;4.400;2022-09-06T08:06:11;7.72;;;3.28;;
23696;SDS011;48864;50.820;4.400;2022-09-06T08:08:37;4.32;;;2.60;;
23696;SDS011;48864;50.820;4.400;2022-09-06T08:11:05;6.43;;;3.20;;
23696;SDS011;48864;50.820;4.400;2022-09-06T08:13:32;6.10;;;2.95;;
23696;SDS011;48864;50.820;4.400;2022-09-06T08:16:06;4.88;;;2.88;;
23696;SDS011;48864;50.820;4.400;2022-09-06T08:18:36;4.63;;;3.30;;
23696;SDS011;48864;50.820;4.400;2022-09-06T08:23:39;4.32;;;2.67;;
23696;SDS011;48864;50.820;4.400;2022-09-06T08:26:08;4.15;;;3.03;;
23696;SDS011;48864;50.820;4.400;2022-09-06T08:28:36;7.15;;;3.30;;
23696;SDS011;48864;50.820;4.400;2022-09-06T08:31:05;4.55;;;3.55;;
23696;SDS011;48864;50.820;4.400;2022-09-06T08:33:34;4.05;;;3.40;;
23696;SDS011;48864;50.820;4.400;2022-09-06T08:36:01;6.28;;;3.90;;
23696;SDS011;48864;50.820;4.400;2022-09-06T08:38:27;4.40;;;3.30;;
23696;SDS011;48864;50.820;4.400;2022-09-06T08:43:36;7.80;;;3.15;;
23696;SDS011;48864;50.820;4.400;2022-09-06T08:46:02;5.25;;;3.25;;
23696;SDS011;48864;50.820;4.400;2022-09-06T08:48:31;5.70;;;3.75;;
23696;SDS011;48864;50.820;4.400;2022-09-06T08:54:10;6.53;;;3.53;;
23696;SDS011;48864;50.820;4.400;2022-09-06T08:59:52;5.05;;;3.05;;
23696;SDS011;48864;50.820;4.400;2022-09-06T09:02:23;5.63;;;3.65;;
23696;SDS011;48864;50.820;4.400;2022-09-06T09:04:59;5.22;;;4.40;;
23696;SDS011;48864;50.820;4.400;2022-09-06T09:09:58;7.05;;;3.95;;
23696;SDS011;48864;50.820;4.400;2022-09-06T09:12:29;6.63;;;4.50;;
23696;SDS011;48864;50.820;4.400;2022-09-06T09:14:59;8.25;;;4.68;;
23696;SDS011;48864;50.820;4.400;2022-09-06T09:17:30;7.05;;;4.22;;
23696;SDS011;48864;50.820;4.400;2022-09-06T09:19:57;5.95;;;4.32;;
23696;SDS011;48864;50.820;4.400;2022-09-06T09:22:23;5.47;;;4.22;;
23696;SDS011;48864;50.820;4.400;2022-09-06T09:24:56;9.80;;;4.93;;
23696;SDS011;48864;50.820;4.400;2022-09-06T09:27:24;7.95;;;4.82;;
23696;SDS011;48864;50.820;4.400;2022-09-06T09:32:34;9.48;;;5.53;;
23696;SDS011;48864;50.820;4.400;2022-09-06T09:35:21;7.30;;;5.25;;
23696;SDS011;48864;50.820;4.400;2022-09-06T09:37:58;9.32;;;5.68;;
23696;SDS011;48864;50.820;4.400;2022-09-06T09:40:33;9.30;;;6.13;;
23696;SDS011;48864;50.820;4.400;2022-09-06T09:43:10;6.60;;;5.40;;
23696;SDS011;48864;50.820;4.400;2022-09-06T09:48:39;7.95;;;5.50;;
23696;SDS011;48864;50.820;4.400;2022-09-06T09:51:24;11.23;;;5.35;;
23696;SDS011;48864;50.820;4.400;2022-09-06T09:53:54;12.00;;;5.45;;
23696;SDS011;48864;50.820;4.400;2022-09-06T16:55:24;45.10;;;42.70;;
23696;SDS011;48864;50.820;4.400;2022-09-06T16:57:50;43.65;;;41.13;;
23696;SDS011;48864;50.820;4.400;2022-09-06T17:00:16;43.13;;;40.50;;
23696;SDS011;48864;50.820;4.400;2022-09-06T17:02:42;7.40;;;5.40;;
23696;SDS011;48864;50.820;4.400;2022-09-06T17:05:09;6.07;;;5.57;;
23696;SDS011;48864;50.820;4.400;2022-09-06T17:07:40;6.00;;;5.43;;
23696;SDS011;48864;50.820;4.400;2022-09-06T17:10:05;11.85;;;7.65;;
23696;SDS011;48864;50.820;4.400;2022-09-06T17:12:31;11.70;;;6.50;;
23696;SDS011;48864;50.820;4.400;2022-09-06T17:15:00;6.43;;;5.93;;
23696;SDS011;48864;50.820;4.400;2022-09-06T17:17:26;6.38;;;5.55;;
23696;SDS011;48864;50.820;4.400;2022-09-06T17:19:51;6.10;;;5.60;;
23696;SDS011;48864;50.820;4.400;2022-09-06T17:22:18;5.47;;;5.05;;
23696;SDS011;48864;50.820;4.400;2022-09-06T17:24:45;5.53;;;4.97;;
23696;SDS011;48864;50.820;4.400;2022-09-06T17:27:11;8.40;;;5.35;;
23696;SDS011;48864;50.820;4.400;2022-09-06T17:29:38;6.75;;;5.28;;
23696;SDS011;48864;50.820;4.400;2022-09-06T17:32:05;6.95;;;5.10;;
23696;SDS011;48864;50.820;4.400;2022-09-06T17:34:36;5.90;;;5.40;;
23696;SDS011;48864;50.820;4.400;2022-09-06T17:37:03;5.90;;;5.30;;
23696;SDS011;48864;50.820;4.400;2022-09-06T17:39:30;6.15;;;5.55;;
23696;SDS011;48864;50.820;4.400;2022-09-06T17:41:56;5.85;;;5.07;;
23696;SDS011;48864;50.820;4.400;2022-09-06T17:44:28;7.03;;;5.28;;
23696;SDS011;48864;50.820;4.400;2022-09-06T17:46:54;7.00;;;5.30;;
23696;SDS011;48864;50.820;4.400;2022-09-06T17:49:23;6.15;;;5.65;;
23696;SDS011;48864;50.820;4.400;2022-09-06T17:51:55;8.95;;;8.05;;
23696;SDS011;48864;50.820;4.400;2022-09-06T17:54:22;7.20;;;6.50;;
23696;SDS011;48864;50.820;4.400;2022-09-06T17:59:20;6.50;;;5.90;;
23696;SDS011;48864;50.820;4.400;2022-09-06T18:01:50;6.43;;;5.45;;
23696;SDS011;48864;50.820;4.400;2022-09-06T18:04:27;6.93;;;5.43;;
23696;SDS011;48864;50.820;4.400;2022-09-06T18:06:59;5.85;;;5.32;;
23696;SDS011;48864;50.820;4.400;2022-09-06T18:09:25;6.10;;;5.25;;
23696;SDS011;48864;50.820;4.400;2022-09-06T18:11:52;5.80;;;5.30;;
23696;SDS011;48864;50.820;4.400;2022-09-06T18:14:25;6.07;;;5.30;;
23696;SDS011;48864;50.820;4.400;2022-09-06T18:16:52;6.07;;;5.47;;
23696;SDS011;48864;50.820;4.400;2022-09-06T18:19:18;6.28;;;5.13;;
23696;SDS011;48864;50.820;4.400;2022-09-06T18:21:46;5.85;;;5.25;;
23696;SDS011;48864;50.820;4.400;2022-09-06T18:24:15;7.05;;;5.68;;
23696;SDS011;48864;50.820;4.400;2022-09-06T18:26:41;7.15;;;6.45;;
23696;SDS011;48864;50.820;4.400;2022-09-06T18:29:15;6.22;;;5.72;;
23696;SDS011;48864;50.820;4.400;2022-09-06T18:31:49;6.93;;;5.20;;
23696;SDS011;48864;50.820;4.400;2022-09-06T18:34:17;7.20;;;5.13;;
23696;SDS011;48864;50.820;4.400;2022-09-06T18:36:43;8.10;;;5.63;;
23696;SDS011;48864;50.820;4.400;2022-09-06T18:39:09;6.68;;;6.07;;
23696;SDS011;48864;50.820;4.400;2022-09-06T18:41:49;6.28;;;5.68;;
23696;SDS011;48864;50.820;4.400;2022-09-06T18:44:27;5.95;;;5.28;;
23696;SDS011;48864;50.820;4.400;2022-09-06T18:46:55;5.65;;;5.07;;
23696;SDS011;48864;50.820;4.400;2022-09-06T18:49:28;6.85;;;5.45;;
23696;SDS011;48864;50.820;4.400;2022-09-06T18:51:54;6.13;;;5.05;;
23696;SDS011;48864;50.820;4.400;2022-09-06T18:54:20;7.00;;;5.63;;
23696;SDS011;48864;50.820;4.400;2022-09-06T18:56:46;5.57;;;5.07;;
23696;SDS011;48864;50.820;4.400;2022-09-06T18:59:13;6.03;;;5.32;;
23696;SDS011;48864;50.820;4.400;2022-09-06T19:01:45;6.00;;;5.47;;
23696;SDS011;48864;50.820;4.400;2022-09-06T19:04:11;6.28;;;5.47;;
23696;SDS011;48864;50.820;4.400;2022-09-06T19:06:38;7.05;;;5.57;;
23696;SDS011;48864;50.820;4.400;2022-09-06T19:09:09;9.25;;;5.53;;
23696;SDS011;48864;50.820;4.400;2022-09-06T19:11:37;6.10;;;5.57;;
23696;SDS011;48864;50.820;4.400;2022-09-06T19:14:05;5.88;;;5.38;;
23696;SDS011;48864;50.820;4.400;2022-09-06T19:16:31;5.75;;;5.35;;
23696;SDS011;48864;50.820;4.400;2022-09-06T19:19:04;7.00;;;5.35;;
23696;SDS011;48864;50.820;4.400;2022-09-06T19:21:38;6.15;;;5.50;;
23696;SDS011;48864;50.820;4.400;2022-09-06T19:24:04;10.07;;;5.47;;
23696;SDS011;48864;50.820;4.400;2022-09-06T19:26:35;6.15;;;5.30;;
23696;SDS011;48864;50.820;4.400;2022-09-06T19:29:04;6.75;;;5.43;;
23696;SDS011;48864;50.820;4.400;2022-09-06T19:31:33;6.53;;;5.72;;
23696;SDS011;48864;50.820;4.400;2022-09-06T19:34:00;7.10;;;5.82;;
23696;SDS011;48864;50.820;4.400;2022-09-06T19:36:27;10.18;;;6.18;;
23696;SDS011;48864;50.820;4.400;2022-09-06T19:39:02;8.90;;;5.28;;
23696;SDS011;48864;50.820;4.400;2022-09-06T19:41:30;5.88;;;5.35;;
23696;SDS011;48864;50.820;4.400;2022-09-06T19:43:57;6.18;;;5.35;;
23696;SDS011;48864;50.820;4.400;2022-09-06T19:46:31;5.93;;;5.32;;
23696;SDS011;48864;50.820;4.400;2022-09-06T19:48:56;5.63;;;5.15;;
23696;SDS011;48864;50.820;4.400;2022-09-06T19:51:25;8.45;;;7.13;;
23696;SDS011;48864;50.820;4.400;2022-09-06T19:53:52;7.97;;;6.45;;
23696;SDS011;48864;50.820;4.400;2022-09-06T19:56:29;6.00;;;5.40;;
23696;SDS011;48864;50.820;4.400;2022-09-06T19:58:58;7.47;;;5.30;;
23696;SDS011;48864;50.820;4.400;2022-09-06T20:01:26;8.13;;;5.45;;
23696;SDS011;48864;50.820;4.400;2022-09-06T20:03:54;6.78;;;5.82;;
23696;SDS011;48864;50.820;4.400;2022-09-06T20:06:22;7.00;;;5.50;;
23696;SDS011;48864;50.820;4.400;2022-09-06T20:08:56;6.78;;;5.82;;
23696;SDS011;48864;50.820;4.400;2022-09-06T20:11:24;10.32;;;6.38;;
23696;SDS011;48864;50.820;4.400;2022-09-06T20:13:52;7.70;;;5.43;;
23696;SDS011;48864;50.820;4.400;2022-09-06T20:16:19;6.32;;;5.72;;
23696;SDS011;48864;50.820;4.400;2022-09-06T20:18:46;9.27;;;5.88;;
23696;SDS011;48864;50.820;4.400;2022-09-06T20:21:13;7.65;;;5.70;;
23696;SDS011;48864;50.820;4.400;2022-09-06T20:23:39;6.65;;;5.63;;
23696;SDS011;48864;50.820;4.400;2022-09-06T20:26:06;5.45;;;4.95;;
23696;SDS011;48864;50.820;4.400;2022-09-06T20:28:33;6.97;;;4.93;;
23696;SDS011;48864;50.820;4.400;2022-09-06T20:31:00;6.20;;;5.60;;
23696;SDS011;48864;50.820;4.400;2022-09-06T20:33:29;6.25;;;5.60;;
23696;SDS011;48864;50.820;4.400;2022-09-06T20:35:58;10.75;;;6.00;;
23696;SDS011;48864;50.820;4.400;2022-09-06T20:38:28;5.90;;;5.40;;
23696;SDS011;48864;50.820;4.400;2022-09-06T20:41:02;6.07;;;5.57;;
23696;SDS011;48864;50.820;4.400;2022-09-06T20:43:29;6.15;;;5.50;;
23696;SDS011;48864;50.820;4.400;2022-09-06T20:45:57;5.50;;;5.00;;
23696;SDS011;48864;50.820;4.400;2022-09-06T20:48:24;6.38;;;5.28;;
23696;SDS011;48864;50.820;4.400;2022-09-06T20:51:00;6.07;;;5.47;;
23696;SDS011;48864;50.820;4.400;2022-09-06T20:53:27;6.00;;;5.40;;
23696;SDS011;48864;50.820;4.400;2022-09-06T20:55:56;6.60;;;6.00;;
23696;SDS011;48864;50.820;4.400;2022-09-06T20:58:23;6.50;;;5.78;;
23696;SDS011;48864;50.820;4.400;2022-09-06T21:00:49;6.78;;;6.13;;
23696;SDS011;48864;50.820;4.400;2022-09-06T21:03:16;9.77;;;6.75;;
23696;SDS011;48864;50.820;4.400;2022-09-06T21:05:42;10.55;;;5.60;;
23696;SDS011;48864;50.820;4.400;2022-09-06T21:08:07;6.72;;;5.53;;
23696;SDS011;48864;50.820;4.400;2022-09-06T21:10:34;8.23;;;6.07;;
23696;SDS011;48864;50.820;4.400;2022-09-06T21:13:00;8.27;;;7.10;;
23696;SDS011;48864;50.820;4.400;2022-09-06T21:15:26;8.90;;;6.45;;
23696;SDS011;48864;50.820;4.400;2022-09-06T21:17:51;6.63;;;5.40;;
23696;SDS011;48864;50.820;4.400;2022-09-06T21:20:17;6.55;;;5.43;;
23696;SDS011;48864;50.820;4.400;2022-09-06T21:22:43;8.52;;;5.22;;
23696;SDS011;48864;50.820;4.400;2022-09-06T21:25:08;8.38;;;4.97;;
23696;SDS011;48864;50.820;4.400;2022-09-06T21:27:34;10.38;;;4.97;;
23696;SDS011;48864;50.820;4.400;2022-09-06T21:29:59;7.07;;;4.90;;
23696;SDS011;48864;50.820;4.400;2022-09-06T21:32:25;7.38;;;5.22;;
23696;SDS011;48864;50.820;4.400;2022-09-06T21:34:51;6.28;;;4.72;;
23696;SDS011;48864;50.820;4.400;2022-09-06T21:37:17;6.97;;;4.68;;
23696;SDS011;48864;50.820;4.400;2022-09-06T21:39:43;14.07;;;5.45;;
23696;SDS011;48864;50.820;4.400;2022-09-06T21:42:08;7.57;;;5.38;;
23696;SDS011;48864;50.820;4.400;2022-09-06T21:44:35;9.20;;;5.45;;
23696;SDS011;48864;50.820;4.400;2022-09-06T21:47:00;5.93;;;4.60;;
23696;SDS011;48864;50.820;4.400;2022-09-06T21:49:26;6.10;;;4.28;;
23696;SDS011;48864;50.820;4.400;2022-09-06T21:51:51;5.95;;;4.20;;
23696;SDS011;48864;50.820;4.400;2022-09-06T21:54:17;8.13;;;4.40;;
23696;SDS011;48864;50.820;4.400;2022-09-06T21:56:43;4.82;;;3.88;;
23696;SDS011;48864;50.820;4.400;2022-09-06T21:59:08;6.38;;;3.75;;
23696;SDS011;48864;50.820;4.400;2022-09-06T22:01:35;5.78;;;3.35;;
23696;SDS011;48864;50.820;4.400;2022-09-06T22:04:02;6.68;;;3.47;;
23696;SDS011;48864;50.820;4.400;2022-09-06T22:06:29;3.70;;;3.30;;
23696;SDS011;48864;50.820;4.400;2022-09-06T22:08:56;6.13;;;3.50;;
23696;SDS011;48864;50.820;4.400;2022-09-06T22:11:24;7.22;;;3.88;;
23696;SDS011;48864;50.820;4.400;2022-09-06T22:13:52;5.43;;;3.90;;
23696;SDS011;48864;50.820;4.400;2022-09-06T22:16:19;6.03;;;3.78;;
23696;SDS011;48864;50.820;4.400;2022-09-06T22:18:46;5.53;;;3.42;;
23696;SDS011;48864;50.820;4.400;2022-09-06T22:21:14;4.63;;;3.63;;
23696;SDS011;48864;50.820;4.400;2022-09-06T22:23:42;7.90;;;3.80;;
23696;SDS011;48864;50.820;4.400;2022-09-06T22:26:13;6.32;;;3.78;;
23696;SDS011;48864;50.820;4.400;2022-09-06T22:28:39;4.53;;;3.75;;
23696;SDS011;48864;50.820;4.400;2022-09-06T22:31:05;5.53;;;3.55;;
23696;SDS011;48864;50.820;4.400;2022-09-06T22:33:32;5.32;;;3.30;;
23696;SDS011;48864;50.820;4.400;2022-09-06T22:35:58;6.68;;;4.10;;
23696;SDS011;48864;50.820;4.400;2022-09-06T22:38:28;4.90;;;3.30;;
23696;SDS011;48864;50.820;4.400;2022-09-06T22:40:54;5.10;;;3.17;;
23696;SDS011;48864;50.820;4.400;2022-09-06T22:43:21;5.35;;;3.10;;
23696;SDS011;48864;50.820;4.400;2022-09-06T22:45:47;4.18;;;2.95;;
23696;SDS011;48864;50.820;4.400;2022-09-06T22:48:12;2.60;;;2.25;;
23696;SDS011;48864;50.820;4.400;2022-09-06T22:50:39;3.83;;;2.25;;
23696;SDS011;48864;50.820;4.400;2022-09-06T22:53:05;2.40;;;2.20;;
23696;SDS011;48864;50.820;4.400;2022-09-06T22:55:31;2.85;;;2.13;;